Aviation Digital Data Service (ADDS)

Output produced by METARs form (1857 UTC 24 April 2017)
found at http://aviationweather.gov/adds/metars/
 
KHYA 241732Z 2418/2518 19009KT P6SM BKN250 
     FM250000 16005KT P6SM BKN090 
     FM250900 07010G18KT P6SM OVC015 
     FM251400 07014G25KT 1SM -RA BR OVC003